Terminal Aerodrome Forecast
Issued by NWS Wilmington, OH

Current Version | Previous Version | Graphics & Text | Print | Product List | Glossary On
Versions: 1 2 3 4 5 6 7 8 9 10 11 12 13 14 15 16 17 18 19 20 21 22 23 24 25
000
FTUS41 KILN 132100 AAA
TAFDAY
TAF AMD
KDAY 132100Z 1321/1418 16015G22KT P6SM SCT110 BKN130 OVC200
     FM132200 22019G30KT P6SM VCSH OVC040
     FM140200 28016G26KT P6SM OVC025
     FM140700 33012KT P6SM OVC015
     FM141500 35007KT P6SM SCT015=

USA.gov is the U.S. government's official web portal to all federal, state and local government web resources and services.